Time,TemperatureF,DewpointF,PressureIn,WindDirection,WindDirectionDegrees,WindSpeedMPH,WindSpeedGustMPH,Humidity,HourlyPrecipIn,Conditions,Clouds,dailyrainin,SolarRadiationWatts/m^2,SoftwareType,DateUTC
2013-07-16 00:05:00,74.4,72.9,30.28,ENE,58,0.0,0.0,95,0.00,RA,,0.00,0.0,WeatherDisplay:10.37,2013-07-16 04:05:00,
2013-07-16 00:10:00,74.3,72.8,30.28,ENE,58,0.0,0.0,95,0.00,CLR,,0.00,0.0,WeatherDisplay:10.37,2013-07-16 04:10:00,
2013-07-16 00:20:00,74.1,72.6,30.28,ENE,58,0.0,0.0,95,0.00,CLR,,0.00,0.0,WeatherDisplay:10.37,2013-07-16 04:20:00,
2013-07-16 00:30:00,73.9,72.4,30.28,ENE,58,0.0,0.0,95,0.00,CLR,,0.00,0.0,WeatherDisplay:10.37,2013-07-16 04:30:00,
2013-07-16 00:35:00,73.8,72.3,30.28,ENE,58,0.0,0.0,95,0.00,CLR,,0.00,0.0,WeatherDisplay:10.37,2013-07-16 04:35:00,
2013-07-16 00:40:00,73.8,72.3,30.28,ENE,58,0.0,0.0,95,0.00,CLR,,0.00,0.0,WeatherDisplay:10.37,2013-07-16 04:40:00,
2013-07-16 00:50:00,73.7,72.2,30.28,ENE,58,0.0,0.0,95,0.00,CLR,,0.00,0.0,WeatherDisplay:10.37,2013-07-16 04:50:00,
2013-07-16 01:00:00,73.6,72.4,30.28,ENE,58,0.0,0.0,96,0.00,CLR,,0.00,0.0,WeatherDisplay:10.37,2013-07-16 05:00:00,
2013-07-16 01:05:00,73.5,72.3,30.28,ENE,58,0.0,0.0,96,0.00,CLR,,0.00,0.0,WeatherDisplay:10.37,2013-07-16 05:05:00,
2013-07-16 01:10:00,73.5,72.3,30.28,ENE,58,0.0,0.0,96,0.00,CLR,,0.00,0.0,WeatherDisplay:10.37,2013-07-16 05:10:00,
2013-07-16 01:20:00,73.4,72.2,30.28,ENE,58,0.0,0.0,96,0.00,CLR,,0.00,0.0,WeatherDisplay:10.37,2013-07-16 05:20:00,
2013-07-16 01:25:00,73.4,72.2,30.28,ENE,58,0.0,0.0,96,0.00,CLR,,0.00,0.0,WeatherDisplay:10.37,2013-07-16 05:25:00,
2013-07-16 01:30:00,73.3,72.1,30.28,ENE,58,0.0,0.0,96,0.00,CLR,,0.00,0.0,WeatherDisplay:10.37,2013-07-16 05:30:00,
2013-07-16 01:40:00,73.3,72.1,30.28,ENE,58,0.0,0.0,96,0.00,CLR,,0.00,0.0,WeatherDisplay:10.37,2013-07-16 05:40:00,
2013-07-16 01:50:00,73.2,72.3,30.27,ENE,58,0.0,0.0,97,0.00,CLR,,0.00,0.0,WeatherDisplay:10.37,2013-07-16 05:50:00,
2013-07-16 02:00:00,73.1,72.2,30.28,ENE,58,0.0,0.0,97,0.00,CLR,,0.00,0.0,WeatherDisplay:10.37,2013-07-16 06:00:00,
2013-07-16 02:05:00,73.1,72.2,30.27,ENE,58,0.0,0.0,97,0.00,CLR,,0.00,0.0,WeatherDisplay:10.37,2013-07-16 06:05:00,
2013-07-16 02:10:00,73.1,72.2,30.27,ENE,58,0.0,0.0,97,0.00,CLR,,0.00,0.0,WeatherDisplay:10.37,2013-07-16 06:10:00,
2013-07-16 02:20:00,73.1,72.2,30.27,ENE,58,0.0,0.0,97,0.00,CLR,,0.00,0.0,WeatherDisplay:10.37,2013-07-16 06:20:00,
2013-07-16 02:30:00,73.1,72.2,30.27,ENE,58,0.0,0.0,97,0.00,CLR,,0.00,0.0,WeatherDisplay:10.37,2013-07-16 06:30:00,
2013-07-16 02:40:00,73.1,72.2,30.27,ENE,58,0.0,0.0,97,0.00,CLR,,0.00,0.0,WeatherDisplay:10.37,2013-07-16 06:40:00,
2013-07-16 02:50:00,73.2,72.3,30.27,ENE,58,0.0,0.0,97,0.00,CLR,,0.00,0.0,WeatherDisplay:10.37,2013-07-16 06:50:00,
2013-07-16 02:55:00,73.2,72.3,30.27,ENE,58,0.0,0.0,97,0.00,CLR,,0.00,0.0,WeatherDisplay:10.37,2013-07-16 06:55:00,
2013-07-16 03:05:00,73.1,72.5,30.27,ENE,58,0.0,0.0,98,0.00,CLR,,0.00,0.0,WeatherDisplay:10.37,2013-07-16 07:05:00,
2013-07-16 03:10:00,73.1,72.5,30.27,ENE,58,0.0,0.0,98,0.00,CLR,,0.00,0.0,WeatherDisplay:10.37,2013-07-16 07:10:00,
2013-07-16 03:20:00,73.1,72.5,30.27,ENE,58,0.0,0.0,98,0.00,CLR,,0.00,0.0,WeatherDisplay:10.37,2013-07-16 07:20:00,
2013-07-16 03:30:00,73.0,72.1,30.27,ENE,58,0.0,0.0,97,0.00,CLR,,0.00,0.0,WeatherDisplay:10.37,2013-07-16 07:30:00,
2013-07-16 03:40:00,73.0,72.4,30.27,ENE,58,0.0,0.0,98,0.00,CLR,,0.00,0.0,WeatherDisplay:10.37,2013-07-16 07:40:00,
2013-07-16 03:50:00,72.9,72.3,30.27,ENE,58,0.0,0.0,98,0.00,CLR,,0.00,0.0,WeatherDisplay:10.37,2013-07-16 07:50:00,
2013-07-16 04:00:00,72.9,72.3,30.27,ENE,58,0.0,0.0,98,0.00,CLR,,0.00,0.0,WeatherDisplay:10.37,2013-07-16 08:00:00,
2013-07-16 04:10:00,73.0,72.4,30.27,ENE,58,0.0,1.0,98,0.00,CLR,,0.00,0.0,WeatherDisplay:10.37,2013-07-16 08:10:00,
2013-07-16 04:20:00,72.9,72.3,30.26,ENE,58,0.0,1.0,98,0.00,CLR,,0.00,0.0,WeatherDisplay:10.37,2013-07-16 08:20:00,
2013-07-16 04:30:00,72.7,72.1,30.27,ENE,58,0.0,0.0,98,0.00,CLR,,0.00,0.0,WeatherDisplay:10.37,2013-07-16 08:30:00,
2013-07-16 04:40:00,72.6,72.0,30.27,ENE,58,0.0,0.0,98,0.00,CLR,,0.00,0.0,WeatherDisplay:10.37,2013-07-16 08:40:00,
2013-07-16 04:50:00,72.5,71.9,30.27,ENE,58,0.0,0.0,98,0.00,CLR,,0.00,0.0,WeatherDisplay:10.37,2013-07-16 08:50:00,
2013-07-16 05:00:00,72.3,71.4,30.26,ENE,58,0.0,0.0,97,0.00,CLR,,0.00,0.0,WeatherDisplay:10.37,2013-07-16 09:00:00,
2013-07-16 05:10:00,72.2,71.6,30.27,ENE,58,0.0,1.0,98,0.00,CLR,,0.00,0.0,WeatherDisplay:10.37,2013-07-16 09:10:00,
2013-07-16 05:20:00,72.2,71.6,30.27,ENE,58,0.0,1.0,98,0.00,CLR,,0.00,0.0,WeatherDisplay:10.37,2013-07-16 09:20:00,
2013-07-16 05:30:00,72.2,71.3,30.27,NE,53,0.0,3.0,97,0.00,CLR,,0.00,0.0,WeatherDisplay:10.37,2013-07-16 09:30:00,
2013-07-16 05:40:00,72.1,71.2,30.27,NNE,30,0.0,1.0,97,0.00,CLR,,0.00,0.0,WeatherDisplay:10.37,2013-07-16 09:40:00,
2013-07-16 05:50:00,72.1,71.2,30.27,NNE,30,0.0,1.0,97,0.00,CLR,,0.00,0.0,WeatherDisplay:10.37,2013-07-16 09:50:00,
2013-07-16 06:00:00,72.2,71.3,30.27,NNE,30,0.0,0.0,97,0.00,CLR,,0.00,0.0,WeatherDisplay:10.37,2013-07-16 10:00:00,
2013-07-16 06:05:00,72.3,71.4,30.27,NNE,30,0.0,0.0,97,0.00,CLR,,0.00,0.0,WeatherDisplay:10.37,2013-07-16 10:05:00,
2013-07-16 06:10:00,72.2,71.3,30.28,NNE,30,0.0,0.0,97,0.00,CLR,,0.00,0.0,WeatherDisplay:10.37,2013-07-16 10:10:00,
2013-07-16 06:20:00,72.0,71.1,30.27,NNE,30,0.0,0.0,97,0.00,CLR,,0.00,0.0,WeatherDisplay:10.37,2013-07-16 10:20:00,
2013-07-16 06:30:00,71.8,70.9,30.27,NNE,30,0.0,0.0,97,0.00,CLR,,0.00,5.0,WeatherDisplay:10.37,2013-07-16 10:30:00,
2013-07-16 06:40:00,71.7,70.8,30.28,NNE,30,0.0,0.0,97,0.00,CLR,,0.00,9.0,WeatherDisplay:10.37,2013-07-16 10:40:00,
2013-07-16 06:50:00,71.6,70.7,30.28,NNE,30,0.0,0.0,97,0.00,CLR,,0.00,11.0,WeatherDisplay:10.37,2013-07-16 10:50:00,
2013-07-16 07:00:00,71.6,70.7,30.28,NNE,30,0.0,0.0,97,0.00,CLR,,0.00,12.0,WeatherDisplay:10.37,2013-07-16 11:00:00,
2013-07-16 07:05:00,71.7,70.8,30.28,NNE,30,0.0,1.0,97,0.00,CLR,,0.00,14.0,WeatherDisplay:10.37,2013-07-16 11:05:00,
2013-07-16 07:10:00,71.8,70.9,30.28,NNE,30,0.0,1.0,97,0.00,CLR,,0.00,14.0,WeatherDisplay:10.37,2013-07-16 11:10:00,
2013-07-16 07:20:00,71.9,71.0,30.29,NNE,32,0.0,1.0,97,0.00,CLR,,0.00,16.0,WeatherDisplay:10.37,2013-07-16 11:20:00,
2013-07-16 07:30:00,72.0,71.1,30.29,NE,36,0.0,1.0,97,0.00,CLR,,0.00,18.0,WeatherDisplay:10.37,2013-07-16 11:30:00,
2013-07-16 07:35:00,72.1,71.2,30.29,NE,36,0.0,1.0,97,0.00,CLR,,0.00,19.0,WeatherDisplay:10.37,2013-07-16 11:35:00,
2013-07-16 07:40:00,72.2,71.3,30.29,NE,36,0.0,0.0,97,0.00,CLR,,0.00,19.0,WeatherDisplay:10.37,2013-07-16 11:40:00,
2013-07-16 07:50:00,72.3,71.4,30.29,NNE,33,0.0,2.0,97,0.00,CLR,,0.00,19.0,WeatherDisplay:10.37,2013-07-16 11:50:00,
2013-07-16 07:55:00,72.4,71.5,30.29,NNE,32,0.0,1.0,97,0.00,CLR,,0.00,21.0,WeatherDisplay:10.37,2013-07-16 11:55:00,
2013-07-16 08:00:00,72.5,71.6,30.29,NNE,32,0.0,1.0,97,0.00,OVC,,0.00,21.0,WeatherDisplay:10.37,2013-07-16 12:00:00,
2013-07-16 08:10:00,72.6,71.4,30.29,NNE,32,0.0,1.0,96,0.00,OVC,,0.00,21.0,WeatherDisplay:10.37,2013-07-16 12:10:00,
2013-07-16 08:20:00,72.7,71.5,30.30,NNE,32,0.0,1.0,96,0.00,OVC,,0.00,23.0,WeatherDisplay:10.37,2013-07-16 12:20:00,
2013-07-16 08:30:00,72.9,71.7,30.30,NNE,32,0.0,0.0,96,0.00,OVC,,0.00,25.0,WeatherDisplay:10.37,2013-07-16 12:30:00,
2013-07-16 08:40:00,73.0,71.5,30.30,NNE,32,0.0,1.0,95,0.00,OVC,,0.00,26.0,WeatherDisplay:10.37,2013-07-16 12:40:00,
2013-07-16 08:50:00,73.3,71.8,30.30,NNE,32,0.0,0.0,95,0.00,OVC,,0.00,26.0,WeatherDisplay:10.37,2013-07-16 12:50:00,
2013-07-16 09:00:00,73.5,72.0,30.30,NNE,32,0.0,0.0,95,0.00,OVC,,0.00,46.0,WeatherDisplay:10.37,2013-07-16 13:00:00,
2013-07-16 09:05:00,73.7,72.2,30.30,NNE,32,0.0,0.0,95,0.00,OVC,,0.00,74.0,WeatherDisplay:10.37,2013-07-16 13:05:00,
2013-07-16 09:10:00,73.8,72.3,30.30,NNE,32,0.0,0.0,95,0.00,OVC,,0.00,30.0,WeatherDisplay:10.37,2013-07-16 13:10:00,
2013-07-16 09:20:00,74.1,72.6,30.30,NNE,32,0.0,0.0,95,0.00,OVC,,0.00,30.0,WeatherDisplay:10.37,2013-07-16 13:20:00,
2013-07-16 09:30:00,74.4,72.9,30.29,NNE,32,0.0,3.0,95,0.00,OVC,,0.00,40.0,WeatherDisplay:10.37,2013-07-16 13:30:00,
2013-07-16 09:40:00,74.7,72.9,30.29,NNE,32,0.0,1.0,94,0.00,OVC,,0.00,35.0,WeatherDisplay:10.37,2013-07-16 13:40:00,
2013-07-16 09:50:00,75.2,73.1,30.29,NNE,32,0.0,0.0,93,0.00,OVC,,0.00,33.0,WeatherDisplay:10.37,2013-07-16 13:50:00,
2013-07-16 10:00:00,75.8,73.9,30.29,NNE,32,0.0,0.0,94,0.00,OVC,,0.00,35.0,WeatherDisplay:10.37,2013-07-16 14:00:00,
2013-07-16 10:05:00,76.0,73.8,30.29,NNE,32,0.0,1.0,93,0.00,OVC,,0.00,37.0,WeatherDisplay:10.37,2013-07-16 14:05:00,
2013-07-16 10:10:00,76.3,74.1,30.29,NNE,32,0.0,1.0,93,0.00,OVC,,0.00,46.0,WeatherDisplay:10.37,2013-07-16 14:10:00,
2013-07-16 10:20:00,76.7,74.2,30.29,NNE,32,0.0,0.0,92,0.00,OVC,,0.00,46.0,WeatherDisplay:10.37,2013-07-16 14:20:00,
2013-07-16 10:30:00,77.2,74.4,30.29,NNE,32,0.0,1.0,91,0.00,OVC,,0.00,58.0,WeatherDisplay:10.37,2013-07-16 14:30:00,
2013-07-16 10:40:00,77.7,74.5,30.29,NNE,32,0.0,1.0,90,0.00,OVC,,0.00,46.0,WeatherDisplay:10.37,2013-07-16 14:40:00,
2013-07-16 10:50:00,78.2,74.7,30.29,NNE,32,0.0,1.0,89,0.00,OVC,,0.00,49.0,WeatherDisplay:10.37,2013-07-16 14:50:00,
2013-07-16 11:00:00,78.7,75.2,30.29,NNE,32,0.0,0.0,89,0.00,OVC,,0.00,53.0,WeatherDisplay:10.37,2013-07-16 15:00:00,
2013-07-16 11:05:00,78.9,75.1,30.29,NNE,32,0.0,0.0,88,0.00,OVC,,0.00,54.0,WeatherDisplay:10.37,2013-07-16 15:05:00,
2013-07-16 11:10:00,79.2,75.3,30.29,NNE,32,0.0,1.0,88,0.00,OVC,,0.00,56.0,WeatherDisplay:10.37,2013-07-16 15:10:00,
2013-07-16 11:20:00,79.9,75.3,30.29,NNE,32,0.0,1.0,86,0.00,CLR,,0.00,469.0,WeatherDisplay:10.37,2013-07-16 15:20:00,
2013-07-16 11:30:00,82.0,75.6,30.28,NNE,32,0.0,0.0,81,0.00,CLR,,0.00,810.0,WeatherDisplay:10.37,2013-07-16 15:30:00,
2013-07-16 11:40:00,83.2,75.2,30.28,NNE,32,0.0,1.0,77,0.00,CLR,,0.00,842.0,WeatherDisplay:10.37,2013-07-16 15:40:00,
2013-07-16 11:50:00,83.8,75.4,30.28,NNE,32,1.0,4.0,76,0.00,CLR,,0.00,858.0,WeatherDisplay:10.37,2013-07-16 15:50:00,
2013-07-16 12:00:00,84.2,74.6,30.28,NNE,32,0.0,2.0,73,0.00,CLR,,0.00,872.0,WeatherDisplay:10.37,2013-07-16 16:00:00,
2013-07-16 12:10:00,84.8,75.6,30.28,NNE,32,0.0,1.0,74,0.00,CLR,,0.00,888.0,WeatherDisplay:10.37,2013-07-16 16:10:00,
2013-07-16 12:20:00,85.3,75.6,30.28,NNE,32,0.0,2.0,73,0.00,CLR,,0.00,895.0,WeatherDisplay:10.37,2013-07-16 16:20:00,
2013-07-16 12:30:00,85.6,75.1,30.28,NNE,32,0.0,1.0,71,0.00,CLR,,0.00,909.0,WeatherDisplay:10.37,2013-07-16 16:30:00,
2013-07-16 12:40:00,85.7,74.8,30.28,NNE,32,0.0,3.0,70,0.00,CLR,,0.00,928.0,WeatherDisplay:10.37,2013-07-16 16:40:00,
2013-07-16 12:50:00,86.4,74.6,30.28,NNE,32,1.0,3.0,68,0.00,CLR,,0.00,940.0,WeatherDisplay:10.37,2013-07-16 16:50:00,
2013-07-16 13:00:00,86.5,74.7,30.27,NE,35,0.0,2.0,68,0.00,CLR,,0.00,946.0,WeatherDisplay:10.37,2013-07-16 17:00:00,
2013-07-16 13:05:00,86.5,74.2,30.27,NE,36,0.0,2.0,67,0.00,CLR,,0.00,953.0,WeatherDisplay:10.37,2013-07-16 17:05:00,
2013-07-16 13:10:00,87.1,75.2,30.27,NE,36,0.0,0.0,68,0.00,CLR,,0.00,954.0,WeatherDisplay:10.37,2013-07-16 17:10:00,
2013-07-16 13:20:00,87.5,74.3,30.27,NE,36,0.0,2.0,65,0.00,CLR,,0.00,967.0,WeatherDisplay:10.37,2013-07-16 17:20:00,
2013-07-16 13:30:00,87.5,74.2,30.26,NE,36,0.0,0.0,65,0.00,CLR,,0.00,972.0,WeatherDisplay:10.37,2013-07-16 17:30:00,
2013-07-16 13:40:00,87.8,73.6,30.26,NE,36,0.0,3.0,63,0.00,CLR,,0.00,977.0,WeatherDisplay:10.37,2013-07-16 17:40:00,
2013-07-16 13:50:00,88.0,73.4,30.26,NE,36,0.0,1.0,62,0.00,CLR,,0.00,969.0,WeatherDisplay:10.37,2013-07-16 17:50:00,
2013-07-16 14:00:00,87.5,74.7,30.25,NE,36,0.0,1.0,66,0.00,CLR,,0.00,963.0,WeatherDisplay:10.37,2013-07-16 18:00:00,
2013-07-16 14:10:00,87.8,74.6,30.25,NE,36,0.0,0.0,65,0.00,CLR,,0.00,972.0,WeatherDisplay:10.37,2013-07-16 18:10:00,
2013-07-16 14:20:00,88.7,73.0,30.25,NE,35,0.0,1.0,60,0.00,CLR,,0.00,960.0,WeatherDisplay:10.37,2013-07-16 18:20:00,
2013-07-16 14:30:00,89.0,74.3,30.25,NNE,22,0.0,0.0,62,0.00,CLR,,0.00,965.0,WeatherDisplay:10.37,2013-07-16 18:30:00,
2013-07-16 14:40:00,89.3,75.0,30.24,NNE,22,0.0,1.0,63,0.00,CLR,,0.00,953.0,WeatherDisplay:10.37,2013-07-16 18:40:00,
2013-07-16 14:50:00,89.0,73.3,30.24,NE,39,1.0,4.0,60,0.00,CLR,,0.00,893.0,WeatherDisplay:10.37,2013-07-16 18:50:00,
2013-07-16 15:00:00,88.6,75.8,30.24,NE,35,0.0,2.0,66,0.00,CLR,,0.00,895.0,WeatherDisplay:10.37,2013-07-16 19:00:00,
2013-07-16 15:05:00,89.4,74.2,30.23,North,354,1.0,4.0,61,0.00,CLR,,0.00,893.0,WeatherDisplay:10.37,2013-07-16 19:05:00,
2013-07-16 15:10:00,89.8,74.0,30.24,NW,306,0.0,1.0,60,0.00,CLR,,0.00,882.0,WeatherDisplay:10.37,2013-07-16 19:10:00,
2013-07-16 15:20:00,89.5,74.3,30.23,NW,306,0.0,0.0,61,0.00,CLR,,0.00,847.0,WeatherDisplay:10.37,2013-07-16 19:20:00,
2013-07-16 15:30:00,90.0,73.7,30.23,NW,306,0.0,0.0,59,0.00,CLR,,0.00,823.0,WeatherDisplay:10.37,2013-07-16 19:30:00,
2013-07-16 15:40:00,89.9,72.1,30.23,NW,306,0.0,1.0,56,0.00,CLR,,0.00,860.0,WeatherDisplay:10.37,2013-07-16 19:40:00,
2013-07-16 15:50:00,90.0,72.7,30.23,NW,306,0.0,0.0,57,0.00,CLR,,0.00,875.0,WeatherDisplay:10.37,2013-07-16 19:50:00,
2013-07-16 16:00:00,90.2,72.9,30.22,NW,317,0.0,1.0,57,0.00,CLR,,0.00,844.0,WeatherDisplay:10.37,2013-07-16 20:00:00,
2013-07-16 16:10:00,90.2,74.9,30.22,NNW,341,0.0,3.0,61,0.00,CLR,,0.00,809.0,WeatherDisplay:10.37,2013-07-16 20:10:00,
2013-07-16 16:20:00,89.7,72.9,30.22,North,9,0.0,1.0,58,0.00,FEW,,0.00,768.0,WeatherDisplay:10.37,2013-07-16 20:20:00,
2013-07-16 16:30:00,89.5,72.8,30.22,North,9,0.0,1.0,58,0.00,FEW,,0.00,754.0,WeatherDisplay:10.37,2013-07-16 20:30:00,
2013-07-16 16:40:00,89.8,73.0,30.21,North,9,0.0,0.0,58,0.00,SCT,,0.00,726.0,WeatherDisplay:10.37,2013-07-16 20:40:00,
2013-07-16 16:50:00,90.3,74.6,30.22,North,10,0.0,3.0,60,0.00,SCT,,0.00,682.0,WeatherDisplay:10.37,2013-07-16 20:50:00,
2013-07-16 17:00:00,90.8,72.4,30.21,NNE,19,0.0,1.0,55,0.00,SCT,,0.00,675.0,WeatherDisplay:10.37,2013-07-16 21:00:00,
2013-07-16 17:05:00,91.1,72.1,30.22,NNE,19,0.0,1.0,54,0.00,SCT,,0.00,657.0,WeatherDisplay:10.37,2013-07-16 21:05:00,
2013-07-16 17:10:00,91.4,72.4,30.21,NNE,19,0.0,1.0,54,0.00,SCT,,0.00,645.0,WeatherDisplay:10.37,2013-07-16 21:10:00,
2013-07-16 17:20:00,91.5,72.5,30.21,NNE,19,0.0,1.0,54,0.00,SCT,,0.00,615.0,WeatherDisplay:10.37,2013-07-16 21:20:00,
2013-07-16 17:30:00,91.5,73.6,30.21,NNE,19,0.0,1.0,56,0.00,SCT,,0.00,585.0,WeatherDisplay:10.37,2013-07-16 21:30:00,
2013-07-16 17:40:00,91.8,72.2,30.21,NNE,19,0.0,0.0,53,0.00,BKN,,0.00,552.0,WeatherDisplay:10.37,2013-07-16 21:40:00,
2013-07-16 17:50:00,91.3,75.0,30.20,NNE,19,0.0,0.0,59,0.00,BKN,,0.00,519.0,WeatherDisplay:10.37,2013-07-16 21:50:00,
2013-07-16 18:00:00,89.7,75.4,30.20,NNE,19,0.0,0.0,63,0.00,BKN,,0.00,494.0,WeatherDisplay:10.37,2013-07-16 22:00:00,
2013-07-16 18:10:00,89.6,75.8,30.20,NNE,19,0.0,0.0,64,0.00,BKN,,0.00,489.0,WeatherDisplay:10.37,2013-07-16 22:10:00,
2013-07-16 18:20:00,89.3,76.9,30.20,NNE,19,0.0,0.0,67,0.00,BKN,,0.00,271.0,WeatherDisplay:10.37,2013-07-16 22:20:00,
2013-07-16 18:30:00,89.0,76.6,30.20,NNE,19,0.0,0.0,67,0.00,BKN,,0.00,165.0,WeatherDisplay:10.37,2013-07-16 22:30:00,
2013-07-16 18:40:00,89.5,78.0,30.20,NNE,19,0.0,0.0,69,0.00,OVC,,0.00,47.0,WeatherDisplay:10.37,2013-07-16 22:40:00,
2013-07-16 18:50:00,89.2,76.3,30.20,NNE,19,0.0,0.0,66,0.00,BKN,,0.00,186.0,WeatherDisplay:10.37,2013-07-16 22:50:00,
2013-07-16 18:59:00,87.0,76.5,30.20,NNE,19,0.0,0.0,71,0.00,BKN,,0.00,255.0,WeatherDisplay:10.37,2013-07-16 22:59:00,
2013-07-16 19:04:00,86.5,76.4,30.20,NNE,19,0.0,0.0,72,0.00,BKN,,0.00,264.0,WeatherDisplay:10.37,2013-07-16 23:04:00,
2013-07-16 19:10:00,86.4,77.1,30.20,NNE,19,0.0,0.0,74,0.00,BKN,,0.00,248.0,WeatherDisplay:10.37,2013-07-16 23:10:00,
2013-07-16 19:20:00,86.9,77.6,30.21,NNE,19,0.0,0.0,74,0.00,BKN,,0.00,206.0,WeatherDisplay:10.37,2013-07-16 23:20:00,
2013-07-16 19:30:00,87.2,78.3,30.21,NNE,19,0.0,0.0,75,0.00,BKN,,0.00,156.0,WeatherDisplay:10.37,2013-07-16 23:30:00,
2013-07-16 19:40:00,87.7,78.8,30.21,NNE,19,0.0,0.0,75,0.00,BKN,,0.00,104.0,WeatherDisplay:10.37,2013-07-16 23:40:00,
2013-07-16 19:50:00,87.8,78.5,30.21,NNE,19,0.0,0.0,74,0.00,BKN,,0.00,88.0,WeatherDisplay:10.37,2013-07-16 23:50:00,
2013-07-16 19:59:00,87.5,79.0,30.21,NNE,19,0.0,0.0,76,0.00,CLR,,0.00,23.0,WeatherDisplay:10.37,2013-07-16 23:59:00,
2013-07-16 20:04:00,87.4,79.3,30.20,NNE,19,0.0,0.0,77,0.00,CLR,,0.00,18.0,WeatherDisplay:10.37,2013-07-17 00:04:00,
2013-07-16 20:10:00,87.0,78.9,30.20,NNE,19,0.0,0.0,77,0.00,CLR,,0.00,16.0,WeatherDisplay:10.37,2013-07-17 00:10:00,
2013-07-16 20:20:00,86.5,78.8,30.20,NNE,19,0.0,0.0,78,0.00,CLR,,0.00,12.0,WeatherDisplay:10.37,2013-07-17 00:20:00,
2013-07-16 20:30:00,85.9,77.8,30.20,NNE,19,0.0,0.0,77,0.00,CLR,,0.00,9.0,WeatherDisplay:10.37,2013-07-17 00:30:00,
2013-07-16 20:40:00,84.9,77.3,30.20,NNE,19,0.0,0.0,78,0.00,CLR,,0.00,0.0,WeatherDisplay:10.37,2013-07-17 00:40:00,
2013-07-16 20:50:00,84.2,76.6,30.21,NNE,20,0.0,0.0,78,0.00,CLR,,0.00,0.0,WeatherDisplay:10.37,2013-07-17 00:50:00,
2013-07-16 20:59:00,83.4,76.6,30.21,NNE,20,0.0,0.0,80,0.00,CLR,,0.00,0.0,WeatherDisplay:10.37,2013-07-17 00:59:00,
2013-07-16 21:10:00,82.7,76.6,30.22,NNE,20,0.0,0.0,82,0.00,CLR,,0.00,0.0,WeatherDisplay:10.37,2013-07-17 01:10:00,
2013-07-16 21:19:00,82.0,76.3,30.23,NNE,20,0.0,0.0,83,0.00,CLR,,0.00,0.0,WeatherDisplay:10.37,2013-07-17 01:19:00,
2013-07-16 21:30:00,81.4,76.1,30.23,NNE,20,0.0,0.0,84,0.00,CLR,,0.00,0.0,WeatherDisplay:10.37,2013-07-17 01:30:00,
2013-07-16 21:40:00,80.8,76.2,30.22,NNE,20,0.0,0.0,86,0.00,CLR,,0.00,0.0,WeatherDisplay:10.37,2013-07-17 01:40:00,
2013-07-16 21:49:00,80.4,76.1,30.23,NNE,20,0.0,0.0,87,0.00,CLR,,0.00,0.0,WeatherDisplay:10.37,2013-07-17 01:49:00,
2013-07-16 21:59:00,80.0,76.4,30.23,NNE,20,0.0,0.0,89,0.00,CLR,,0.00,0.0,WeatherDisplay:10.37,2013-07-17 01:59:00,
2013-07-16 22:10:00,79.6,76.1,30.23,NNE,20,0.0,0.0,89,0.00,CLR,,0.00,0.0,WeatherDisplay:10.37,2013-07-17 02:10:00,
2013-07-16 22:20:00,79.2,75.7,30.23,NNE,20,0.0,0.0,89,0.00,CLR,,0.00,0.0,WeatherDisplay:10.37,2013-07-17 02:20:00,
2013-07-16 22:30:00,78.8,75.3,30.23,NNE,20,0.0,0.0,89,0.00,CLR,,0.00,0.0,WeatherDisplay:10.37,2013-07-17 02:30:00,
2013-07-16 22:40:00,78.4,75.3,30.22,NNE,20,0.0,0.0,90,0.00,CLR,,0.00,0.0,WeatherDisplay:10.37,2013-07-17 02:40:00,
2013-07-16 22:50:00,78.2,75.4,30.22,NNE,20,0.0,0.0,91,0.00,CLR,,0.00,0.0,WeatherDisplay:10.37,2013-07-17 02:50:00,
2013-07-16 22:59:00,78.0,75.5,30.22,NNE,20,0.0,0.0,92,0.00,CLR,,0.00,0.0,WeatherDisplay:10.37,2013-07-17 02:59:00,
2013-07-16 23:04:00,78.0,75.5,30.22,NNE,20,0.0,0.0,92,0.00,CLR,,0.00,0.0,WeatherDisplay:10.37,2013-07-17 03:04:00,
2013-07-16 23:10:00,78.0,75.8,30.21,NNE,20,0.0,0.0,93,0.00,CLR,,0.00,0.0,WeatherDisplay:10.37,2013-07-17 03:10:00,
2013-07-16 23:19:00,77.9,76.1,30.21,NNE,20,0.0,0.0,94,0.00,CLR,,0.00,0.0,WeatherDisplay:10.37,2013-07-17 03:19:00,
2013-07-16 23:29:00,77.9,75.7,30.21,NNE,20,0.0,0.0,93,0.00,CLR,,0.00,0.0,WeatherDisplay:10.37,2013-07-17 03:29:00,
2013-07-16 23:39:00,77.9,76.0,30.21,NNE,20,0.0,1.0,94,0.00,CLR,,0.00,0.0,WeatherDisplay:10.37,2013-07-17 03:39:00,
2013-07-16 23:49:00,77.8,75.3,30.22,NNE,20,0.0,0.0,92,0.00,CLR,,0.00,0.0,WeatherDisplay:10.37,2013-07-17 03:49:00,
2013-07-16 23:59:00,77.9,75.4,30.21,NNE,20,0.0,0.0,92,0.00,CLR,,0.00,0.0,WeatherDisplay:10.37,2013-07-17 03:59:00,